Airfield :
LOGIN :

Register | Disclaimer

   EN    FR    IT 

 










Legend :    VFR   Marginal VFR   IFR   Intensive IFR   Very Intensive IFR
Visi :
Ceiling :
>= 8 km
>= 3000ft
5 to 8 km
1000 to 3000 ft
1500m to 5 km
500 to 1000 ft
800 to 1500m
200 to 500 ft
< 800m
< 200 ft
Symbols :   Thunderstorms  Fog  Heavy snow  Heavy precipitations  Wind > 20 kt
SIGMETs :     Misc.  Thunderstorms  Icing  Turbulence  Mountain Waves  Volcanic Ashes






- Airport Elevation : 21 ft
- IATA code : BJV


LTFE - Bodrum

CURRENT METAR :
  • 021250Z 26013KT 9999 SCT035 BKN100 16/09 Q1010 NOSIG RMK RWY10 25014KT

EXPIRED METARs :
  • 021220Z 27013KT 9999 SCT035 BKN100 16/10 Q1009 NOSIG RMK RWY10 26012KT
  • 021150Z 26015KT 230V290 9999 FEW020CB SCT035 BKN100 17/09 Q1009 NOSIG RMK RWY10 25014KT
  • 021120Z 23019KT 200V260 9999 FEW020CB SCT030 BKN090 18/06 Q1009 TEMPO TL1200 4000 -TSRA
  • 021050Z 24019KT 9999 FEW020CB SCT030 BKN090 17/10 Q1009 BECMG TL1200 4000 -TSRA RMK RWY10 23016KT
  • 021020Z 24018KT 9999 FEW020CB SCT030 BKN090 17/10 Q1009 TEMPO TL1200 4000 -TSRA

TAF TAF LTFE
Valid from the 02 at 12:00 until the 03 at 12:00 UTC


021040Z 0212/0312 25015KT 9999 SCT035 BKN100
BECMG 0214/0217 VRB02KT
PROB40
TEMPO 0222/0302 -SHRA
BECMG 0310/0312 26012KT



MET'MAP, your aeronautical weather chart ! - Copyright ORBIFLY December 2007 - Disclaimer

ORBIFLY MET'MAP TEAM :

Programming & Development : Alexandra Zaïnal
Concept & original design : Baudouin d'Aumeries
Assistance for programming : Marc-Olivier Méhu
Technical & hardware support : Manuel Goepfert

Contact : metmap@orbifly.com




SOURCES & CREDITS :

   NOAA